sensor_id;sensor_type;location;lat;lon;timestamp;temperature;humidity
22192;DHT22;11261;52.456;10.850;2023-02-13T00:01:15;8.30;99.90
22192;DHT22;11261;52.456;10.850;2023-02-13T00:03:43;8.30;99.90
22192;DHT22;11261;52.456;10.850;2023-02-13T00:06:11;8.30;99.90
22192;DHT22;11261;52.456;10.850;2023-02-13T00:08:40;8.30;99.90
22192;DHT22;11261;52.456;10.850;2023-02-13T00:11:08;8.30;99.90
22192;DHT22;11261;52.456;10.850;2023-02-13T00:13:36;8.40;99.90
22192;DHT22;11261;52.456;10.850;2023-02-13T00:16:05;8.30;99.90
22192;DHT22;11261;52.456;10.850;2023-02-13T00:18:36;8.30;99.90
22192;DHT22;11261;52.456;10.850;2023-02-13T00:21:07;8.30;99.90
22192;DHT22;11261;52.456;10.850;2023-02-13T00:23:37;8.30;99.90
22192;DHT22;11261;52.456;10.850;2023-02-13T00:26:06;8.30;99.90
22192;DHT22;11261;52.456;10.850;2023-02-13T00:28:35;8.30;99.90
22192;DHT22;11261;52.456;10.850;2023-02-13T00:31:05;8.30;99.90
22192;DHT22;11261;52.456;10.850;2023-02-13T00:33:36;8.40;99.90
22192;DHT22;11261;52.456;10.850;2023-02-13T00:36:06;8.30;99.90
22192;DHT22;11261;52.456;10.850;2023-02-13T00:38:35;8.30;99.90
22192;DHT22;11261;52.456;10.850;2023-02-13T00:41:04;8.30;99.90
22192;DHT22;11261;52.456;10.850;2023-02-13T00:43:32;8.30;99.90
22192;DHT22;11261;52.456;10.850;2023-02-13T00:46:01;8.30;99.90
22192;DHT22;11261;52.456;10.850;2023-02-13T00:48:30;8.30;99.90
22192;DHT22;11261;52.456;10.850;2023-02-13T00:51:00;8.30;99.90
22192;DHT22;11261;52.456;10.850;2023-02-13T00:53:29;8.40;99.90
22192;DHT22;11261;52.456;10.850;2023-02-13T00:55:58;8.30;99.90
22192;DHT22;11261;52.456;10.850;2023-02-13T00:58:26;8.30;99.90
22192;DHT22;11261;52.456;10.850;2023-02-13T01:00:55;8.30;99.90
22192;DHT22;11261;52.456;10.850;2023-02-13T01:03:24;8.40;99.90
22192;DHT22;11261;52.456;10.850;2023-02-13T01:05:52;8.30;99.90
22192;DHT22;11261;52.456;10.850;2023-02-13T01:08:22;8.30;99.90
22192;DHT22;11261;52.456;10.850;2023-02-13T01:10:50;8.30;99.90
22192;DHT22;11261;52.456;10.850;2023-02-13T01:13:19;8.30;99.90
22192;DHT22;11261;52.456;10.850;2023-02-13T01:15:48;8.30;99.90
22192;DHT22;11261;52.456;10.850;2023-02-13T01:18:19;8.30;99.90
22192;DHT22;11261;52.456;10.850;2023-02-13T01:20:55;8.30;99.90
22192;DHT22;11261;52.456;10.850;2023-02-13T01:23:29;8.30;99.90
22192;DHT22;11261;52.456;10.850;2023-02-13T01:25:58;8.30;99.90
22192;DHT22;11261;52.456;10.850;2023-02-13T01:28:26;8.30;99.90
22192;DHT22;11261;52.456;10.850;2023-02-13T01:30:56;8.20;99.90
22192;DHT22;11261;52.456;10.850;2023-02-13T01:33:27;8.20;99.90
22192;DHT22;11261;52.456;10.850;2023-02-13T01:35:55;8.20;99.90
22192;DHT22;11261;52.456;10.850;2023-02-13T01:38:24;8.20;99.90
22192;DHT22;11261;52.456;10.850;2023-02-13T01:40:53;8.20;99.90
22192;DHT22;11261;52.456;10.850;2023-02-13T01:43:23;8.20;99.90
22192;DHT22;11261;52.456;10.850;2023-02-13T01:45:55;8.10;99.90
22192;DHT22;11261;52.456;10.850;2023-02-13T01:48:25;7.90;99.90
22192;DHT22;11261;52.456;10.850;2023-02-13T01:51:00;7.90;99.90
22192;DHT22;11261;52.456;10.850;2023-02-13T01:53:32;8.00;99.90
22192;DHT22;11261;52.456;10.850;2023-02-13T01:56:10;8.00;99.90
22192;DHT22;11261;52.456;10.850;2023-02-13T01:58:42;8.00;99.90
22192;DHT22;11261;52.456;10.850;2023-02-13T02:01:11;8.00;99.90
22192;DHT22;11261;52.456;10.850;2023-02-13T02:03:44;7.90;99.90
22192;DHT22;11261;52.456;10.850;2023-02-13T02:06:18;7.90;99.90
22192;DHT22;11261;52.456;10.850;2023-02-13T02:08:48;8.10;99.90
22192;DHT22;11261;52.456;10.850;2023-02-13T02:11:31;8.00;99.90
22192;DHT22;11261;52.456;10.850;2023-02-13T02:14:00;8.00;99.90
22192;DHT22;11261;52.456;10.850;2023-02-13T02:16:30;8.00;99.90
22192;DHT22;11261;52.456;10.850;2023-02-13T02:19:01;8.10;99.90
22192;DHT22;11261;52.456;10.850;2023-02-13T02:21:55;8.20;99.90
22192;DHT22;11261;52.456;10.850;2023-02-13T02:28:03;8.10;99.90
22192;DHT22;11261;52.456;10.850;2023-02-13T02:34:05;8.10;99.90
22192;DHT22;11261;52.456;10.850;2023-02-13T02:36:47;8.10;99.90
22192;DHT22;11261;52.456;10.850;2023-02-13T02:39:22;8.10;99.90
22192;DHT22;11261;52.456;10.850;2023-02-13T02:42:04;8.10;99.90
22192;DHT22;11261;52.456;10.850;2023-02-13T02:44:41;8.10;99.90
22192;DHT22;11261;52.456;10.850;2023-02-13T02:47:19;8.10;99.90
22192;DHT22;11261;52.456;10.850;2023-02-13T02:50:18;8.10;99.90
22192;DHT22;11261;52.456;10.850;2023-02-13T02:52:56;8.10;99.90
22192;DHT22;11261;52.456;10.850;2023-02-13T02:55:35;8.20;99.90
22192;DHT22;11261;52.456;10.850;2023-02-13T02:58:09;8.20;99.90
22192;DHT22;11261;52.456;10.850;2023-02-13T03:00:58;8.20;99.90
22192;DHT22;11261;52.456;10.850;2023-02-13T03:03:46;8.20;99.90
22192;DHT22;11261;52.456;10.850;2023-02-13T03:06:37;8.20;99.90
22192;DHT22;11261;52.456;10.850;2023-02-13T03:09:11;8.10;99.90
22192;DHT22;11261;52.456;10.850;2023-02-13T03:11:58;8.20;99.90
22192;DHT22;11261;52.456;10.850;2023-02-13T03:14:45;8.10;99.90
22192;DHT22;11261;52.456;10.850;2023-02-13T03:17:15;8.20;99.90
22192;DHT22;11261;52.456;10.850;2023-02-13T03:20:11;8.10;99.90
22192;DHT22;11261;52.456;10.850;2023-02-13T03:23:10;8.10;99.90
22192;DHT22;11261;52.456;10.850;2023-02-13T03:25:52;8.10;99.90
22192;DHT22;11261;52.456;10.850;2023-02-13T03:28:29;8.10;99.90
22192;DHT22;11261;52.456;10.850;2023-02-13T03:31:23;8.10;99.90
22192;DHT22;11261;52.456;10.850;2023-02-13T03:33:57;8.10;99.90
22192;DHT22;11261;52.456;10.850;2023-02-13T03:36:39;8.20;99.90
22192;DHT22;11261;52.456;10.850;2023-02-13T03:39:37;8.10;99.90
22192;DHT22;11261;52.456;10.850;2023-02-13T03:42:15;8.10;99.90
22192;DHT22;11261;52.456;10.850;2023-02-13T03:44:50;8.10;99.90
22192;DHT22;11261;52.456;10.850;2023-02-13T03:47:41;8.10;99.90
22192;DHT22;11261;52.456;10.850;2023-02-13T03:50:11;8.00;99.90
22192;DHT22;11261;52.456;10.850;2023-02-13T03:52:44;8.10;99.90
22192;DHT22;11261;52.456;10.850;2023-02-13T03:55:17;8.10;99.90
22192;DHT22;11261;52.456;10.850;2023-02-13T03:58:06;8.10;99.90
22192;DHT22;11261;52.456;10.850;2023-02-13T04:00:56;8.00;99.90
22192;DHT22;11261;52.456;10.850;2023-02-13T04:03:29;8.00;99.90
22192;DHT22;11261;52.456;10.850;2023-02-13T04:06:02;8.00;99.90
22192;DHT22;11261;52.456;10.850;2023-02-13T04:08:31;8.00;99.90
22192;DHT22;11261;52.456;10.850;2023-02-13T04:11:09;8.00;99.90
22192;DHT22;11261;52.456;10.850;2023-02-13T04:13:44;8.10;99.90
22192;DHT22;11261;52.456;10.850;2023-02-13T04:16:16;8.00;99.90
22192;DHT22;11261;52.456;10.850;2023-02-13T04:18:46;8.10;99.90
22192;DHT22;11261;52.456;10.850;2023-02-13T04:21:16;8.10;99.90
22192;DHT22;11261;52.456;10.850;2023-02-13T04:23:44;8.10;99.90
22192;DHT22;11261;52.456;10.850;2023-02-13T04:26:16;8.00;99.90
22192;DHT22;11261;52.456;10.850;2023-02-13T04:28:45;8.10;99.90
22192;DHT22;11261;52.456;10.850;2023-02-13T04:31:14;8.00;99.90
22192;DHT22;11261;52.456;10.850;2023-02-13T04:33:42;8.10;99.90
22192;DHT22;11261;52.456;10.850;2023-02-13T04:36:10;8.10;99.90
22192;DHT22;11261;52.456;10.850;2023-02-13T04:38:39;8.00;99.90
22192;DHT22;11261;52.456;10.850;2023-02-13T04:41:07;7.90;99.90
22192;DHT22;11261;52.456;10.850;2023-02-13T04:43:36;7.90;99.90
22192;DHT22;11261;52.456;10.850;2023-02-13T04:46:05;7.90;99.90
22192;DHT22;11261;52.456;10.850;2023-02-13T04:48:33;7.90;99.90
22192;DHT22;11261;52.456;10.850;2023-02-13T04:51:04;7.80;99.90
22192;DHT22;11261;52.456;10.850;2023-02-13T04:53:33;7.70;99.90
22192;DHT22;11261;52.456;10.850;2023-02-13T04:56:01;7.80;99.90
22192;DHT22;11261;52.456;10.850;2023-02-13T04:58:30;7.90;99.90
22192;DHT22;11261;52.456;10.850;2023-02-13T05:01:00;7.90;99.90
22192;DHT22;11261;52.456;10.850;2023-02-13T05:03:28;7.90;99.90
22192;DHT22;11261;52.456;10.850;2023-02-13T05:05:57;7.90;99.90
22192;DHT22;11261;52.456;10.850;2023-02-13T05:08:25;8.00;99.90
22192;DHT22;11261;52.456;10.850;2023-02-13T05:10:54;8.00;99.90
22192;DHT22;11261;52.456;10.850;2023-02-13T05:13:22;7.90;99.90
22192;DHT22;11261;52.456;10.850;2023-02-13T05:15:51;7.80;99.90
22192;DHT22;11261;52.456;10.850;2023-02-13T05:18:21;7.70;99.90
22192;DHT22;11261;52.456;10.850;2023-02-13T05:20:49;7.70;99.90
22192;DHT22;11261;52.456;10.850;2023-02-13T05:23:32;7.60;99.90
22192;DHT22;11261;52.456;10.850;2023-02-13T05:26:00;7.70;99.90
22192;DHT22;11261;52.456;10.850;2023-02-13T05:28:29;7.70;99.90
22192;DHT22;11261;52.456;10.850;2023-02-13T05:31:14;7.80;99.90
22192;DHT22;11261;52.456;10.850;2023-02-13T05:33:44;7.80;99.90
22192;DHT22;11261;52.456;10.850;2023-02-13T05:36:12;7.90;99.90
22192;DHT22;11261;52.456;10.850;2023-02-13T05:38:41;7.90;99.90
22192;DHT22;11261;52.456;10.850;2023-02-13T05:41:09;7.90;99.90
22192;DHT22;11261;52.456;10.850;2023-02-13T05:43:39;7.80;99.90
22192;DHT22;11261;52.456;10.850;2023-02-13T05:46:09;7.80;99.90
22192;DHT22;11261;52.456;10.850;2023-02-13T05:48:37;7.80;99.90
22192;DHT22;11261;52.456;10.850;2023-02-13T05:51:07;7.80;99.90
22192;DHT22;11261;52.456;10.850;2023-02-13T05:53:36;7.80;99.90
22192;DHT22;11261;52.456;10.850;2023-02-13T05:56:05;7.80;99.90
22192;DHT22;11261;52.456;10.850;2023-02-13T05:58:33;7.90;99.90
22192;DHT22;11261;52.456;10.850;2023-02-13T06:01:02;7.90;99.90
22192;DHT22;11261;52.456;10.850;2023-02-13T06:03:31;7.80;99.90
22192;DHT22;11261;52.456;10.850;2023-02-13T06:06:00;7.80;99.90
22192;DHT22;11261;52.456;10.850;2023-02-13T06:08:30;7.80;99.90
22192;DHT22;11261;52.456;10.850;2023-02-13T06:10:58;7.90;99.90
22192;DHT22;11261;52.456;10.850;2023-02-13T06:13:27;7.80;99.90
22192;DHT22;11261;52.456;10.850;2023-02-13T06:15:55;7.80;99.90
22192;DHT22;11261;52.456;10.850;2023-02-13T06:18:23;7.80;99.90
22192;DHT22;11261;52.456;10.850;2023-02-13T06:20:52;7.80;99.90
22192;DHT22;11261;52.456;10.850;2023-02-13T06:23:20;7.80;99.90
22192;DHT22;11261;52.456;10.850;2023-02-13T06:25:50;7.80;99.90
22192;DHT22;11261;52.456;10.850;2023-02-13T06:28:18;7.90;99.90
22192;DHT22;11261;52.456;10.850;2023-02-13T06:30:47;7.80;99.90
22192;DHT22;11261;52.456;10.850;2023-02-13T06:33:15;7.80;99.90
22192;DHT22;11261;52.456;10.850;2023-02-13T06:35:44;7.80;99.90
22192;DHT22;11261;52.456;10.850;2023-02-13T06:38:12;7.80;99.90
22192;DHT22;11261;52.456;10.850;2023-02-13T06:40:40;7.80;99.90
22192;DHT22;11261;52.456;10.850;2023-02-13T06:43:10;7.80;99.90
22192;DHT22;11261;52.456;10.850;2023-02-13T06:45:39;7.80;99.90
22192;DHT22;11261;52.456;10.850;2023-02-13T06:48:07;7.80;99.90
22192;DHT22;11261;52.456;10.850;2023-02-13T06:50:36;7.80;99.90
22192;DHT22;11261;52.456;10.850;2023-02-13T06:53:04;7.80;99.90
22192;DHT22;11261;52.456;10.850;2023-02-13T06:55:32;7.80;99.90
22192;DHT22;11261;52.456;10.850;2023-02-13T06:58:00;7.80;99.90
22192;DHT22;11261;52.456;10.850;2023-02-13T07:00:30;7.80;99.90
22192;DHT22;11261;52.456;10.850;2023-02-13T07:03:01;7.80;99.90
22192;DHT22;11261;52.456;10.850;2023-02-13T07:05:30;7.80;99.90
22192;DHT22;11261;52.456;10.850;2023-02-13T07:07:58;7.80;99.90
22192;DHT22;11261;52.456;10.850;2023-02-13T07:10:26;7.80;99.90
22192;DHT22;11261;52.456;10.850;2023-02-13T07:12:55;7.80;99.90
22192;DHT22;11261;52.456;10.850;2023-02-13T07:15:34;7.80;99.90
22192;DHT22;11261;52.456;10.850;2023-02-13T07:18:03;7.80;99.90
22192;DHT22;11261;52.456;10.850;2023-02-13T07:20:32;7.80;99.90
22192;DHT22;11261;52.456;10.850;2023-02-13T07:23:02;7.80;99.90
22192;DHT22;11261;52.456;10.850;2023-02-13T07:25:31;7.90;99.90
22192;DHT22;11261;52.456;10.850;2023-02-13T07:28:00;7.80;99.90
22192;DHT22;11261;52.456;10.850;2023-02-13T07:30:29;7.90;99.90
22192;DHT22;11261;52.456;10.850;2023-02-13T07:33:00;7.90;99.90
22192;DHT22;11261;52.456;10.850;2023-02-13T07:35:30;7.80;99.90
22192;DHT22;11261;52.456;10.850;2023-02-13T07:37:58;7.90;99.90
22192;DHT22;11261;52.456;10.850;2023-02-13T07:40:27;7.90;99.90
22192;DHT22;11261;52.456;10.850;2023-02-13T07:42:59;7.90;99.90
22192;DHT22;11261;52.456;10.850;2023-02-13T07:45:27;8.00;99.90
22192;DHT22;11261;52.456;10.850;2023-02-13T07:47:56;7.90;99.90
22192;DHT22;11261;52.456;10.850;2023-02-13T07:50:26;8.00;99.90
22192;DHT22;11261;52.456;10.850;2023-02-13T07:52:56;7.90;99.90
22192;DHT22;11261;52.456;10.850;2023-02-13T07:55:25;7.90;99.90
22192;DHT22;11261;52.456;10.850;2023-02-13T07:57:54;7.90;99.90
22192;DHT22;11261;52.456;10.850;2023-02-13T08:00:23;7.90;99.90
22192;DHT22;11261;52.456;10.850;2023-02-13T08:02:51;7.90;99.90
22192;DHT22;11261;52.456;10.850;2023-02-13T08:05:19;8.00;99.90
22192;DHT22;11261;52.456;10.850;2023-02-13T08:07:49;8.00;99.90
22192;DHT22;11261;52.456;10.850;2023-02-13T08:10:18;8.00;99.90
22192;DHT22;11261;52.456;10.850;2023-02-13T08:13:04;8.00;99.90
22192;DHT22;11261;52.456;10.850;2023-02-13T08:15:33;8.00;99.90
22192;DHT22;11261;52.456;10.850;2023-02-13T08:18:02;8.00;99.90
22192;DHT22;11261;52.456;10.850;2023-02-13T08:20:30;8.00;99.90
22192;DHT22;11261;52.456;10.850;2023-02-13T08:23:03;8.00;99.90
22192;DHT22;11261;52.456;10.850;2023-02-13T08:25:32;8.00;99.90
22192;DHT22;11261;52.456;10.850;2023-02-13T08:28:01;8.00;99.90
22192;DHT22;11261;52.456;10.850;2023-02-13T08:30:29;8.00;99.90
22192;DHT22;11261;52.456;10.850;2023-02-13T08:32:58;8.00;99.90
22192;DHT22;11261;52.456;10.850;2023-02-13T08:35:26;8.10;99.90
22192;DHT22;11261;52.456;10.850;2023-02-13T08:38:02;8.00;99.90
22192;DHT22;11261;52.456;10.850;2023-02-13T08:40:31;7.90;99.90
22192;DHT22;11261;52.456;10.850;2023-02-13T08:43:00;8.00;99.90
22192;DHT22;11261;52.456;10.850;2023-02-13T08:45:29;8.00;99.90
22192;DHT22;11261;52.456;10.850;2023-02-13T08:47:58;8.00;99.90
22192;DHT22;11261;52.456;10.850;2023-02-13T08:50:27;8.10;99.90
22192;DHT22;11261;52.456;10.850;2023-02-13T08:52:57;8.10;99.90
22192;DHT22;11261;52.456;10.850;2023-02-13T08:55:27;8.10;99.90
22192;DHT22;11261;52.456;10.850;2023-02-13T08:57:58;8.10;99.90
22192;DHT22;11261;52.456;10.850;2023-02-13T09:00:27;8.20;99.90
22192;DHT22;11261;52.456;10.850;2023-02-13T09:02:59;8.20;99.90
22192;DHT22;11261;52.456;10.850;2023-02-13T09:05:28;8.20;99.90
22192;DHT22;11261;52.456;10.850;2023-02-13T09:07:59;8.10;99.90
22192;DHT22;11261;52.456;10.850;2023-02-13T09:10:30;8.10;99.90
22192;DHT22;11261;52.456;10.850;2023-02-13T09:12:59;8.20;99.90
22192;DHT22;11261;52.456;10.850;2023-02-13T09:15:27;8.30;99.90
22192;DHT22;11261;52.456;10.850;2023-02-13T09:17:56;8.40;99.90
22192;DHT22;11261;52.456;10.850;2023-02-13T09:20:24;8.30;99.90
22192;DHT22;11261;52.456;10.850;2023-02-13T09:22:54;8.30;99.90
22192;DHT22;11261;52.456;10.850;2023-02-13T09:25:22;8.40;99.90
22192;DHT22;11261;52.456;10.850;2023-02-13T09:27:52;8.30;99.90
22192;DHT22;11261;52.456;10.850;2023-02-13T09:30:20;8.20;99.90
22192;DHT22;11261;52.456;10.850;2023-02-13T09:32:53;8.20;99.90
22192;DHT22;11261;52.456;10.850;2023-02-13T09:35:22;8.30;99.90
22192;DHT22;11261;52.456;10.850;2023-02-13T09:37:51;8.40;99.90
22192;DHT22;11261;52.456;10.850;2023-02-13T09:40:23;8.40;99.90
22192;DHT22;11261;52.456;10.850;2023-02-13T09:43:04;8.40;99.90
22192;DHT22;11261;52.456;10.850;2023-02-13T09:45:34;8.40;99.90
22192;DHT22;11261;52.456;10.850;2023-02-13T09:48:04;8.40;99.90
22192;DHT22;11261;52.456;10.850;2023-02-13T09:50:33;8.50;99.90
22192;DHT22;11261;52.456;10.850;2023-02-13T09:53:03;8.40;99.90
22192;DHT22;11261;52.456;10.850;2023-02-13T09:55:38;8.40;99.90
22192;DHT22;11261;52.456;10.850;2023-02-13T09:58:18;8.50;99.90
22192;DHT22;11261;52.456;10.850;2023-02-13T10:00:53;8.50;99.90
22192;DHT22;11261;52.456;10.850;2023-02-13T10:03:28;8.50;99.90
22192;DHT22;11261;52.456;10.850;2023-02-13T10:06:05;8.60;99.90
22192;DHT22;11261;52.456;10.850;2023-02-13T10:08:52;8.60;99.90
22192;DHT22;11261;52.456;10.850;2023-02-13T10:11:37;8.50;99.90
22192;DHT22;11261;52.456;10.850;2023-02-13T10:14:16;8.50;99.90
22192;DHT22;11261;52.456;10.850;2023-02-13T10:16:49;8.50;99.90
22192;DHT22;11261;52.456;10.850;2023-02-13T10:19:28;8.50;99.90
22192;DHT22;11261;52.456;10.850;2023-02-13T10:21:59;8.50;99.90
22192;DHT22;11261;52.456;10.850;2023-02-13T10:24:34;8.50;99.90
22192;DHT22;11261;52.456;10.850;2023-02-13T10:27:13;8.60;99.90
22192;DHT22;11261;52.456;10.850;2023-02-13T10:29:46;8.60;99.90
22192;DHT22;11261;52.456;10.850;2023-02-13T10:32:46;8.60;99.90
22192;DHT22;11261;52.456;10.850;2023-02-13T10:35:22;8.70;99.90
22192;DHT22;11261;52.456;10.850;2023-02-13T10:37:54;8.70;99.90
22192;DHT22;11261;52.456;10.850;2023-02-13T10:40:30;8.70;99.90
22192;DHT22;11261;52.456;10.850;2023-02-13T10:43:06;8.70;99.90
22192;DHT22;11261;52.456;10.850;2023-02-13T10:45:54;8.70;99.90
22192;DHT22;11261;52.456;10.850;2023-02-13T10:48:42;8.80;99.90
22192;DHT22;11261;52.456;10.850;2023-02-13T10:51:20;8.80;99.90
22192;DHT22;11261;52.456;10.850;2023-02-13T10:54:12;8.80;99.90
22192;DHT22;11261;52.456;10.850;2023-02-13T10:56:45;8.80;99.90
22192;DHT22;11261;52.456;10.850;2023-02-13T10:59:29;8.80;99.90
22192;DHT22;11261;52.456;10.850;2023-02-13T11:02:14;8.80;99.90
22192;DHT22;11261;52.456;10.850;2023-02-13T11:04:47;8.90;99.90
22192;DHT22;11261;52.456;10.850;2023-02-13T11:07:19;8.80;99.90
22192;DHT22;11261;52.456;10.850;2023-02-13T11:09:49;8.90;99.90
22192;DHT22;11261;52.456;10.850;2023-02-13T11:12:24;8.90;99.90
22192;DHT22;11261;52.456;10.850;2023-02-13T11:14:57;9.00;99.90
22192;DHT22;11261;52.456;10.850;2023-02-13T11:17:29;9.00;99.90
22192;DHT22;11261;52.456;10.850;2023-02-13T11:19:59;8.80;99.90
22192;DHT22;11261;52.456;10.850;2023-02-13T11:22:31;9.00;99.90
22192;DHT22;11261;52.456;10.850;2023-02-13T11:25:03;9.00;99.90
22192;DHT22;11261;52.456;10.850;2023-02-13T11:27:34;9.00;99.90
22192;DHT22;11261;52.456;10.850;2023-02-13T11:30:06;9.00;99.90
22192;DHT22;11261;52.456;10.850;2023-02-13T11:32:39;9.10;99.90
22192;DHT22;11261;52.456;10.850;2023-02-13T11:35:26;9.10;99.90
22192;DHT22;11261;52.456;10.850;2023-02-13T11:38:15;9.20;99.90
22192;DHT22;11261;52.456;10.850;2023-02-13T11:40:49;9.10;99.90
22192;DHT22;11261;52.456;10.850;2023-02-13T11:43:22;9.00;99.90
22192;DHT22;11261;52.456;10.850;2023-02-13T11:46:00;9.10;99.90
22192;DHT22;11261;52.456;10.850;2023-02-13T11:48:31;9.00;99.90
22192;DHT22;11261;52.456;10.850;2023-02-13T11:51:00;9.00;99.90
22192;DHT22;11261;52.456;10.850;2023-02-13T11:53:30;9.10;99.90
22192;DHT22;11261;52.456;10.850;2023-02-13T11:56:08;9.10;99.90
22192;DHT22;11261;52.456;10.850;2023-02-13T11:58:37;9.00;99.90
22192;DHT22;11261;52.456;10.850;2023-02-13T12:01:29;9.10;99.90
22192;DHT22;11261;52.456;10.850;2023-02-13T12:04:04;9.10;99.90
22192;DHT22;11261;52.456;10.850;2023-02-13T12:06:34;9.00;99.90
22192;DHT22;11261;52.456;10.850;2023-02-13T12:09:12;9.20;99.90
22192;DHT22;11261;52.456;10.850;2023-02-13T12:11:44;9.20;99.90
22192;DHT22;11261;52.456;10.850;2023-02-13T12:14:17;9.20;99.90
22192;DHT22;11261;52.456;10.850;2023-02-13T12:16:48;9.20;99.90
22192;DHT22;11261;52.456;10.850;2023-02-13T12:19:23;9.20;99.90
22192;DHT22;11261;52.456;10.850;2023-02-13T12:22:16;9.20;99.90
22192;DHT22;11261;52.456;10.850;2023-02-13T12:28:00;9.20;99.90
22192;DHT22;11261;52.456;10.850;2023-02-13T12:30:43;9.20;99.90
22192;DHT22;11261;52.456;10.850;2023-02-13T12:33:22;9.40;99.90
22192;DHT22;11261;52.456;10.850;2023-02-13T12:36:00;9.30;99.90
22192;DHT22;11261;52.456;10.850;2023-02-13T12:38:40;9.40;99.90
22192;DHT22;11261;52.456;10.850;2023-02-13T12:41:16;9.30;99.90
22192;DHT22;11261;52.456;10.850;2023-02-13T12:46:53;9.40;99.90
22192;DHT22;11261;52.456;10.850;2023-02-13T12:49:49;9.50;99.90
22192;DHT22;11261;52.456;10.850;2023-02-13T12:52:33;9.50;99.90
22192;DHT22;11261;52.456;10.850;2023-02-13T12:55:31;9.50;99.90
22192;DHT22;11261;52.456;10.850;2023-02-13T12:58:19;9.60;99.90
22192;DHT22;11261;52.456;10.850;2023-02-13T13:00:57;9.70;99.90
22192;DHT22;11261;52.456;10.850;2023-02-13T13:03:36;9.70;99.90
22192;DHT22;11261;52.456;10.850;2023-02-13T13:06:16;9.70;99.90
22192;DHT22;11261;52.456;10.850;2023-02-13T13:09:04;9.60;99.90
22192;DHT22;11261;52.456;10.850;2023-02-13T13:12:02;9.60;99.90
22192;DHT22;11261;52.456;10.850;2023-02-13T13:14:38;9.50;99.90
22192;DHT22;11261;52.456;10.850;2023-02-13T13:17:19;9.40;99.90
22192;DHT22;11261;52.456;10.850;2023-02-13T13:19:58;9.50;99.90
22192;DHT22;11261;52.456;10.850;2023-02-13T13:22:32;9.50;99.90
22192;DHT22;11261;52.456;10.850;2023-02-13T13:25:14;9.60;99.90
22192;DHT22;11261;52.456;10.850;2023-02-13T13:27:46;9.60;99.90
22192;DHT22;11261;52.456;10.850;2023-02-13T13:30:17;9.70;99.90
22192;DHT22;11261;52.456;10.850;2023-02-13T13:32:55;9.60;99.90
22192;DHT22;11261;52.456;10.850;2023-02-13T13:35:23;9.60;99.90
22192;DHT22;11261;52.456;10.850;2023-02-13T13:37:57;9.60;99.90
22192;DHT22;11261;52.456;10.850;2023-02-13T13:40:38;9.80;99.90
22192;DHT22;11261;52.456;10.850;2023-02-13T13:43:17;11.60;99.90
22192;DHT22;11261;52.456;10.850;2023-02-13T13:45:56;10.70;99.90
22192;DHT22;11261;52.456;10.850;2023-02-13T13:51:26;9.80;99.90
22192;DHT22;11261;52.456;10.850;2023-02-13T13:57:11;9.60;99.90
22192;DHT22;11261;52.456;10.850;2023-02-13T14:03:12;9.60;99.90
22192;DHT22;11261;52.456;10.850;2023-02-13T14:06:00;9.70;99.90
22192;DHT22;11261;52.456;10.850;2023-02-13T14:11:41;9.90;99.90
22192;DHT22;11261;52.456;10.850;2023-02-13T14:17:50;9.80;99.90
22192;DHT22;11261;52.456;10.850;2023-02-13T14:23:12;9.70;99.90
22192;DHT22;11261;52.456;10.850;2023-02-13T14:25:41;9.80;99.90
22192;DHT22;11261;52.456;10.850;2023-02-13T14:28:21;9.90;99.90
22192;DHT22;11261;52.456;10.850;2023-02-13T14:30:51;10.00;99.90
22192;DHT22;11261;52.456;10.850;2023-02-13T14:33:33;9.60;99.90
22192;DHT22;11261;52.456;10.850;2023-02-13T14:36:05;9.60;99.90
22192;DHT22;11261;52.456;10.850;2023-02-13T14:38:35;9.50;99.90
22192;DHT22;11261;52.456;10.850;2023-02-13T14:41:03;9.60;99.90
22192;DHT22;11261;52.456;10.850;2023-02-13T14:43:40;9.80;99.90
22192;DHT22;11261;52.456;10.850;2023-02-13T14:46:31;9.80;99.90
22192;DHT22;11261;52.456;10.850;2023-02-13T14:49:06;9.80;99.90
22192;DHT22;11261;52.456;10.850;2023-02-13T14:51:43;9.80;99.90
22192;DHT22;11261;52.456;10.850;2023-02-13T14:54:19;9.80;99.90
22192;DHT22;11261;52.456;10.850;2023-02-13T14:56:53;9.80;99.90
22192;DHT22;11261;52.456;10.850;2023-02-13T14:59:29;9.90;99.90
22192;DHT22;11261;52.456;10.850;2023-02-13T15:02:06;9.90;99.90
22192;DHT22;11261;52.456;10.850;2023-02-13T15:04:40;9.80;99.90
22192;DHT22;11261;52.456;10.850;2023-02-13T15:07:14;9.90;99.90
22192;DHT22;11261;52.456;10.850;2023-02-13T15:09:47;9.90;99.90
22192;DHT22;11261;52.456;10.850;2023-02-13T15:12:35;9.80;99.90
22192;DHT22;11261;52.456;10.850;2023-02-13T15:15:23;9.90;99.90
22192;DHT22;11261;52.456;10.850;2023-02-13T15:17:54;9.90;99.90
22192;DHT22;11261;52.456;10.850;2023-02-13T15:20:29;9.80;99.90
22192;DHT22;11261;52.456;10.850;2023-02-13T15:22:58;9.80;99.90
22192;DHT22;11261;52.456;10.850;2023-02-13T15:25:31;9.70;99.90
22192;DHT22;11261;52.456;10.850;2023-02-13T15:28:02;9.70;99.90
22192;DHT22;11261;52.456;10.850;2023-02-13T15:30:32;9.70;99.90
22192;DHT22;11261;52.456;10.850;2023-02-13T15:33:11;9.70;99.90
22192;DHT22;11261;52.456;10.850;2023-02-13T15:35:42;9.80;99.90
22192;DHT22;11261;52.456;10.850;2023-02-13T15:38:18;9.80;99.90
22192;DHT22;11261;52.456;10.850;2023-02-13T15:40:50;9.30;99.90
22192;DHT22;11261;52.456;10.850;2023-02-13T15:43:22;9.50;99.90
22192;DHT22;11261;52.456;10.850;2023-02-13T15:45:53;9.60;99.90
22192;DHT22;11261;52.456;10.850;2023-02-13T15:48:22;9.50;99.90
22192;DHT22;11261;52.456;10.850;2023-02-13T15:50:52;9.50;99.90
22192;DHT22;11261;52.456;10.850;2023-02-13T15:53:22;9.60;99.90
22192;DHT22;11261;52.456;10.850;2023-02-13T15:55:59;9.60;99.90
22192;DHT22;11261;52.456;10.850;2023-02-13T15:58:30;9.60;99.90
22192;DHT22;11261;52.456;10.850;2023-02-13T16:01:02;9.70;99.90
22192;DHT22;11261;52.456;10.850;2023-02-13T16:03:33;9.60;99.90
22192;DHT22;11261;52.456;10.850;2023-02-13T16:06:04;9.60;99.90
22192;DHT22;11261;52.456;10.850;2023-02-13T16:08:34;9.60;99.90
22192;DHT22;11261;52.456;10.850;2023-02-13T16:11:23;9.60;99.90
22192;DHT22;11261;52.456;10.850;2023-02-13T16:14:06;9.50;99.90
22192;DHT22;11261;52.456;10.850;2023-02-13T16:16:43;9.60;99.90
22192;DHT22;11261;52.456;10.850;2023-02-13T16:19:49;9.60;99.90
22192;DHT22;11261;52.456;10.850;2023-02-13T16:22:29;9.60;99.90
22192;DHT22;11261;52.456;10.850;2023-02-13T16:25:10;9.50;99.90
22192;DHT22;11261;52.456;10.850;2023-02-13T16:27:43;9.50;99.90
22192;DHT22;11261;52.456;10.850;2023-02-13T16:30:28;9.50;99.90
22192;DHT22;11261;52.456;10.850;2023-02-13T16:33:20;9.50;99.90
22192;DHT22;11261;52.456;10.850;2023-02-13T16:35:51;9.40;99.90
22192;DHT22;11261;52.456;10.850;2023-02-13T16:38:31;9.50;99.90
22192;DHT22;11261;52.456;10.850;2023-02-13T16:41:00;9.40;99.90
22192;DHT22;11261;52.456;10.850;2023-02-13T16:43:36;9.40;99.90